Huvudsida
METAR-TAF:

METAR-TAF

Flygplatser :

Bahrains internationella flygplats

Bahrain, Bahrain

latitud: 26-16N, longitud: 050-39E, höjd: 2 m

Aktuellt väderrapport

Denna rapport gjordes för 36 minuter sedan, klockan 14:00 UTC
Vind 3 kt från nord/nordost, varierande mellan nord/nordväst och nordost
Temperatur 28°C
Fuktighet 70%
Tryck 1016 hPa
Sikt 10 km eller mer
Få moln på en höjd av 3000 ft

METAR: OBBI 161400Z 02003KT 340V050 9999 FEW030 28/22 Q1016 NOSIG

Tid: 17:36 (14:36 UTC)

Väderprognos

Denna rapport gjordes för 3 timmar och 36 minuter sedan, klockan 11:00 UTC
Prognos gäller från 16 kl. 12 UTC till 17 kl. 18 UTC
Vind 12 kt från nord/nordväst
Sikt 10 km eller mer
Inga moln under 1 500 m eller inga cumulonimbus
Blir
från 17 kl. 04 UTC till 17 kl. 06 UTC
Vind 15 kt från nord/nordväst i byarna ända upp till 25 kt

TAF: OBBI 161100Z 1612/1718 34012KT CAVOK BECMG 1704/1706 33015G25KT

Aktuella väderrapporter och prognoser från 4000 flygplatser (METAR- och TAF-rapporter).

De tillgängliga stationerna syns som gula och röda prickar på kartan.

För musen över prickarna för att se namnen på stationerna.

Klicka sedan för att få väderrapporter och prognoser.

För att ändra kartan: Klicka på de gröna knapparna med ett svart kors på för att zooma in; den gröna knappen med ett streck på för att zooma ut; eller på de gröna pilarna för angränsande kartor.


METAR-TAF: